sensor_id;sensor_type;location;lat;lon;timestamp;temperature;humidity
22633;DHT22;11483;55.828;37.488;2023-06-26T00:00:43;19.60;99.90
22633;DHT22;11483;55.828;37.488;2023-06-26T00:03:09;19.60;99.90
22633;DHT22;11483;55.828;37.488;2023-06-26T00:05:35;19.50;99.90
22633;DHT22;11483;55.828;37.488;2023-06-26T00:08:00;19.50;99.90
22633;DHT22;11483;55.828;37.488;2023-06-26T00:10:27;19.50;99.90
22633;DHT22;11483;55.828;37.488;2023-06-26T00:12:54;19.50;99.90
22633;DHT22;11483;55.828;37.488;2023-06-26T00:15:19;19.40;99.90
22633;DHT22;11483;55.828;37.488;2023-06-26T00:17:45;19.40;99.90
22633;DHT22;11483;55.828;37.488;2023-06-26T00:20:11;19.40;99.90
22633;DHT22;11483;55.828;37.488;2023-06-26T00:22:37;19.40;99.90
22633;DHT22;11483;55.828;37.488;2023-06-26T00:25:07;19.40;99.90
22633;DHT22;11483;55.828;37.488;2023-06-26T00:27:33;19.30;99.90
22633;DHT22;11483;55.828;37.488;2023-06-26T00:29:59;19.30;99.90
22633;DHT22;11483;55.828;37.488;2023-06-26T00:32:24;19.30;99.90
22633;DHT22;11483;55.828;37.488;2023-06-26T00:34:50;19.30;99.90
22633;DHT22;11483;55.828;37.488;2023-06-26T00:37:17;19.30;99.90
22633;DHT22;11483;55.828;37.488;2023-06-26T00:39:43;19.30;99.90
22633;DHT22;11483;55.828;37.488;2023-06-26T00:42:09;19.30;99.90
22633;DHT22;11483;55.828;37.488;2023-06-26T00:44:35;19.30;99.90
22633;DHT22;11483;55.828;37.488;2023-06-26T00:47:01;19.30;99.90
22633;DHT22;11483;55.828;37.488;2023-06-26T00:49:27;19.20;99.90
22633;DHT22;11483;55.828;37.488;2023-06-26T00:51:53;19.20;99.90
22633;DHT22;11483;55.828;37.488;2023-06-26T00:54:20;19.20;99.90
22633;DHT22;11483;55.828;37.488;2023-06-26T00:56:48;19.20;99.90
22633;DHT22;11483;55.828;37.488;2023-06-26T00:59:14;19.10;99.90
22633;DHT22;11483;55.828;37.488;2023-06-26T01:01:40;19.10;99.90
22633;DHT22;11483;55.828;37.488;2023-06-26T01:04:06;19.10;99.90
22633;DHT22;11483;55.828;37.488;2023-06-26T01:06:33;19.10;99.90
22633;DHT22;11483;55.828;37.488;2023-06-26T01:09:05;19.10;99.90
22633;DHT22;11483;55.828;37.488;2023-06-26T01:11:31;19.00;99.90
22633;DHT22;11483;55.828;37.488;2023-06-26T01:13:58;19.00;99.90
22633;DHT22;11483;55.828;37.488;2023-06-26T01:16:26;19.00;99.90
22633;DHT22;11483;55.828;37.488;2023-06-26T01:18:53;18.90;99.90
22633;DHT22;11483;55.828;37.488;2023-06-26T01:21:19;18.90;99.90
22633;DHT22;11483;55.828;37.488;2023-06-26T01:24:02;18.90;99.90
22633;DHT22;11483;55.828;37.488;2023-06-26T01:26:32;18.80;99.90
22633;DHT22;11483;55.828;37.488;2023-06-26T01:29:02;18.80;99.90
22633;DHT22;11483;55.828;37.488;2023-06-26T01:31:29;18.80;99.90
22633;DHT22;11483;55.828;37.488;2023-06-26T01:33:58;18.90;99.90
22633;DHT22;11483;55.828;37.488;2023-06-26T01:36:25;18.90;99.90
22633;DHT22;11483;55.828;37.488;2023-06-26T01:38:51;18.90;99.90
22633;DHT22;11483;55.828;37.488;2023-06-26T01:41:18;18.90;99.90
22633;DHT22;11483;55.828;37.488;2023-06-26T01:46:25;18.90;99.90
22633;DHT22;11483;55.828;37.488;2023-06-26T01:51:46;18.80;99.90
22633;DHT22;11483;55.828;37.488;2023-06-26T01:54:18;18.80;99.90
22633;DHT22;11483;55.828;37.488;2023-06-26T01:56:49;18.80;99.90
22633;DHT22;11483;55.828;37.488;2023-06-26T01:59:17;18.80;99.90
22633;DHT22;11483;55.828;37.488;2023-06-26T02:01:44;18.80;99.90
22633;DHT22;11483;55.828;37.488;2023-06-26T02:04:10;18.70;99.90
22633;DHT22;11483;55.828;37.488;2023-06-26T02:06:36;18.80;99.90
22633;DHT22;11483;55.828;37.488;2023-06-26T02:09:02;18.80;99.90
22633;DHT22;11483;55.828;37.488;2023-06-26T02:11:27;18.90;99.90
22633;DHT22;11483;55.828;37.488;2023-06-26T02:13:53;19.00;99.90
22633;DHT22;11483;55.828;37.488;2023-06-26T02:16:19;19.10;99.90
22633;DHT22;11483;55.828;37.488;2023-06-26T02:18:45;19.10;99.90
22633;DHT22;11483;55.828;37.488;2023-06-26T02:21:11;19.20;99.90
22633;DHT22;11483;55.828;37.488;2023-06-26T02:23:37;19.30;99.90
22633;DHT22;11483;55.828;37.488;2023-06-26T02:26:03;19.40;99.90
22633;DHT22;11483;55.828;37.488;2023-06-26T02:28:29;19.40;99.90
22633;DHT22;11483;55.828;37.488;2023-06-26T02:30:56;19.50;99.90
22633;DHT22;11483;55.828;37.488;2023-06-26T02:33:22;19.60;99.90
22633;DHT22;11483;55.828;37.488;2023-06-26T02:35:48;19.70;99.90
22633;DHT22;11483;55.828;37.488;2023-06-26T02:38:17;19.80;99.90
22633;DHT22;11483;55.828;37.488;2023-06-26T02:40:42;19.90;99.90
22633;DHT22;11483;55.828;37.488;2023-06-26T02:43:08;20.00;99.90
22633;DHT22;11483;55.828;37.488;2023-06-26T02:45:34;20.10;99.90
22633;DHT22;11483;55.828;37.488;2023-06-26T02:48:00;20.20;99.90
22633;DHT22;11483;55.828;37.488;2023-06-26T02:50:26;20.30;99.90
22633;DHT22;11483;55.828;37.488;2023-06-26T02:52:52;20.30;99.90
22633;DHT22;11483;55.828;37.488;2023-06-26T02:55:19;20.40;99.90
22633;DHT22;11483;55.828;37.488;2023-06-26T02:57:45;20.50;99.90
22633;DHT22;11483;55.828;37.488;2023-06-26T03:00:12;20.50;99.90
22633;DHT22;11483;55.828;37.488;2023-06-26T03:02:38;20.50;99.90
22633;DHT22;11483;55.828;37.488;2023-06-26T03:05:04;20.50;99.90
22633;DHT22;11483;55.828;37.488;2023-06-26T03:07:30;20.50;99.90
22633;DHT22;11483;55.828;37.488;2023-06-26T03:09:56;20.50;99.90
22633;DHT22;11483;55.828;37.488;2023-06-26T03:12:22;20.40;99.90
22633;DHT22;11483;55.828;37.488;2023-06-26T03:14:48;20.40;99.90
22633;DHT22;11483;55.828;37.488;2023-06-26T03:17:14;20.40;99.90
22633;DHT22;11483;55.828;37.488;2023-06-26T03:19:39;20.40;99.90
22633;DHT22;11483;55.828;37.488;2023-06-26T03:22:05;20.40;99.90
22633;DHT22;11483;55.828;37.488;2023-06-26T03:24:31;20.50;99.90
22633;DHT22;11483;55.828;37.488;2023-06-26T03:26:57;20.40;99.90
22633;DHT22;11483;55.828;37.488;2023-06-26T03:29:23;20.50;99.90
22633;DHT22;11483;55.828;37.488;2023-06-26T03:31:49;20.50;99.90
22633;DHT22;11483;55.828;37.488;2023-06-26T03:34:15;20.50;99.90
22633;DHT22;11483;55.828;37.488;2023-06-26T03:36:40;20.50;99.90
22633;DHT22;11483;55.828;37.488;2023-06-26T03:39:06;20.50;99.90
22633;DHT22;11483;55.828;37.488;2023-06-26T03:41:32;20.50;99.90
22633;DHT22;11483;55.828;37.488;2023-06-26T03:43:58;20.60;99.90
22633;DHT22;11483;55.828;37.488;2023-06-26T03:46:26;20.60;99.90
22633;DHT22;11483;55.828;37.488;2023-06-26T03:48:51;20.70;99.90
22633;DHT22;11483;55.828;37.488;2023-06-26T03:51:17;20.70;99.90
22633;DHT22;11483;55.828;37.488;2023-06-26T03:53:43;20.80;99.90
22633;DHT22;11483;55.828;37.488;2023-06-26T03:56:09;20.90;99.90
22633;DHT22;11483;55.828;37.488;2023-06-26T03:58:35;21.00;99.90
22633;DHT22;11483;55.828;37.488;2023-06-26T04:01:01;21.00;99.90
22633;DHT22;11483;55.828;37.488;2023-06-26T04:03:27;21.00;99.90
22633;DHT22;11483;55.828;37.488;2023-06-26T04:05:52;21.10;99.90
22633;DHT22;11483;55.828;37.488;2023-06-26T04:08:18;21.10;99.90
22633;DHT22;11483;55.828;37.488;2023-06-26T04:10:45;21.20;99.90
22633;DHT22;11483;55.828;37.488;2023-06-26T04:13:11;21.40;99.90
22633;DHT22;11483;55.828;37.488;2023-06-26T04:15:37;21.60;99.90
22633;DHT22;11483;55.828;37.488;2023-06-26T04:18:03;21.80;99.90
22633;DHT22;11483;55.828;37.488;2023-06-26T04:20:29;21.90;99.90
22633;DHT22;11483;55.828;37.488;2023-06-26T04:22:56;22.00;99.90
22633;DHT22;11483;55.828;37.488;2023-06-26T04:25:21;22.20;99.90
22633;DHT22;11483;55.828;37.488;2023-06-26T04:27:47;22.30;99.90
22633;DHT22;11483;55.828;37.488;2023-06-26T04:30:13;22.50;99.90
22633;DHT22;11483;55.828;37.488;2023-06-26T04:32:39;22.70;99.90
22633;DHT22;11483;55.828;37.488;2023-06-26T04:35:05;22.80;99.90
22633;DHT22;11483;55.828;37.488;2023-06-26T04:37:32;22.90;99.90
22633;DHT22;11483;55.828;37.488;2023-06-26T04:39:58;22.90;99.90
22633;DHT22;11483;55.828;37.488;2023-06-26T04:42:23;23.00;99.90
22633;DHT22;11483;55.828;37.488;2023-06-26T04:44:49;23.00;99.90
22633;DHT22;11483;55.828;37.488;2023-06-26T04:47:15;22.90;99.90
22633;DHT22;11483;55.828;37.488;2023-06-26T04:49:42;22.80;99.90
22633;DHT22;11483;55.828;37.488;2023-06-26T04:52:12;22.70;99.90
22633;DHT22;11483;55.828;37.488;2023-06-26T04:54:39;22.70;99.90
22633;DHT22;11483;55.828;37.488;2023-06-26T04:57:05;22.60;99.90
22633;DHT22;11483;55.828;37.488;2023-06-26T04:59:31;22.50;99.90
22633;DHT22;11483;55.828;37.488;2023-06-26T05:01:57;22.50;99.90
22633;DHT22;11483;55.828;37.488;2023-06-26T05:04:23;22.50;99.90
22633;DHT22;11483;55.828;37.488;2023-06-26T05:06:49;22.50;99.90
22633;DHT22;11483;55.828;37.488;2023-06-26T05:09:15;22.60;99.90
22633;DHT22;11483;55.828;37.488;2023-06-26T05:11:41;22.70;99.90
22633;DHT22;11483;55.828;37.488;2023-06-26T05:14:06;22.70;99.90
22633;DHT22;11483;55.828;37.488;2023-06-26T05:16:33;22.60;99.90
22633;DHT22;11483;55.828;37.488;2023-06-26T05:19:00;22.60;99.90
22633;DHT22;11483;55.828;37.488;2023-06-26T05:21:26;22.70;99.90
22633;DHT22;11483;55.828;37.488;2023-06-26T05:23:55;22.60;99.90
22633;DHT22;11483;55.828;37.488;2023-06-26T05:26:22;22.80;99.90
22633;DHT22;11483;55.828;37.488;2023-06-26T05:28:48;22.80;99.90
22633;DHT22;11483;55.828;37.488;2023-06-26T05:31:15;22.80;99.90
22633;DHT22;11483;55.828;37.488;2023-06-26T05:33:43;22.90;99.90
22633;DHT22;11483;55.828;37.488;2023-06-26T05:36:12;22.90;99.90
22633;DHT22;11483;55.828;37.488;2023-06-26T05:38:38;22.90;99.90
22633;DHT22;11483;55.828;37.488;2023-06-26T05:41:05;22.90;99.90
22633;DHT22;11483;55.828;37.488;2023-06-26T05:43:31;22.80;99.90
22633;DHT22;11483;55.828;37.488;2023-06-26T05:45:57;22.90;99.90
22633;DHT22;11483;55.828;37.488;2023-06-26T05:48:25;23.00;99.90
22633;DHT22;11483;55.828;37.488;2023-06-26T05:50:51;23.00;99.90
22633;DHT22;11483;55.828;37.488;2023-06-26T05:53:18;23.00;99.90
22633;DHT22;11483;55.828;37.488;2023-06-26T05:55:44;23.10;99.90
22633;DHT22;11483;55.828;37.488;2023-06-26T05:58:10;23.20;99.90
22633;DHT22;11483;55.828;37.488;2023-06-26T06:00:37;23.30;99.90
22633;DHT22;11483;55.828;37.488;2023-06-26T06:03:03;23.30;99.90
22633;DHT22;11483;55.828;37.488;2023-06-26T06:05:29;23.40;99.90
22633;DHT22;11483;55.828;37.488;2023-06-26T06:07:55;23.50;99.90
22633;DHT22;11483;55.828;37.488;2023-06-26T06:10:20;23.50;99.90
22633;DHT22;11483;55.828;37.488;2023-06-26T06:12:46;23.50;99.90
22633;DHT22;11483;55.828;37.488;2023-06-26T06:15:12;23.50;99.90
22633;DHT22;11483;55.828;37.488;2023-06-26T06:17:38;23.50;99.90
22633;DHT22;11483;55.828;37.488;2023-06-26T06:20:04;23.50;99.90
22633;DHT22;11483;55.828;37.488;2023-06-26T06:22:30;23.50;99.90
22633;DHT22;11483;55.828;37.488;2023-06-26T06:24:56;23.60;99.90
22633;DHT22;11483;55.828;37.488;2023-06-26T06:27:22;23.60;99.90
22633;DHT22;11483;55.828;37.488;2023-06-26T06:29:48;23.60;99.90
22633;DHT22;11483;55.828;37.488;2023-06-26T06:32:14;23.60;99.90
22633;DHT22;11483;55.828;37.488;2023-06-26T06:34:40;23.70;99.90
22633;DHT22;11483;55.828;37.488;2023-06-26T06:37:06;23.80;99.90
22633;DHT22;11483;55.828;37.488;2023-06-26T06:39:32;23.90;99.90
22633;DHT22;11483;55.828;37.488;2023-06-26T06:41:58;23.90;99.90
22633;DHT22;11483;55.828;37.488;2023-06-26T06:44:24;23.90;99.90
22633;DHT22;11483;55.828;37.488;2023-06-26T06:46:49;23.90;99.90
22633;DHT22;11483;55.828;37.488;2023-06-26T06:49:15;24.00;99.90
22633;DHT22;11483;55.828;37.488;2023-06-26T06:51:41;24.00;99.90
22633;DHT22;11483;55.828;37.488;2023-06-26T06:54:07;24.10;99.90
22633;DHT22;11483;55.828;37.488;2023-06-26T06:56:33;24.10;98.40
22633;DHT22;11483;55.828;37.488;2023-06-26T06:58:58;24.20;99.50
22633;DHT22;11483;55.828;37.488;2023-06-26T07:01:24;24.40;98.70
22633;DHT22;11483;55.828;37.488;2023-06-26T07:03:50;24.50;98.20
22633;DHT22;11483;55.828;37.488;2023-06-26T07:06:16;24.50;97.70
22633;DHT22;11483;55.828;37.488;2023-06-26T07:08:42;24.60;96.60
22633;DHT22;11483;55.828;37.488;2023-06-26T07:11:08;24.80;96.30
22633;DHT22;11483;55.828;37.488;2023-06-26T07:13:34;24.90;96.60
22633;DHT22;11483;55.828;37.488;2023-06-26T07:15:59;24.90;96.00
22633;DHT22;11483;55.828;37.488;2023-06-26T07:18:25;25.00;95.80
22633;DHT22;11483;55.828;37.488;2023-06-26T07:20:51;25.30;95.00
22633;DHT22;11483;55.828;37.488;2023-06-26T07:23:17;25.40;95.50
22633;DHT22;11483;55.828;37.488;2023-06-26T07:25:43;25.50;95.20
22633;DHT22;11483;55.828;37.488;2023-06-26T07:28:12;25.60;93.60
22633;DHT22;11483;55.828;37.488;2023-06-26T07:30:38;25.70;93.90
22633;DHT22;11483;55.828;37.488;2023-06-26T07:33:04;25.90;92.80
22633;DHT22;11483;55.828;37.488;2023-06-26T07:35:30;25.80;91.90
22633;DHT22;11483;55.828;37.488;2023-06-26T07:37:56;25.80;92.30
22633;DHT22;11483;55.828;37.488;2023-06-26T07:40:22;25.70;91.90
22633;DHT22;11483;55.828;37.488;2023-06-26T07:42:48;25.50;91.80
22633;DHT22;11483;55.828;37.488;2023-06-26T07:45:14;25.50;91.40
22633;DHT22;11483;55.828;37.488;2023-06-26T07:47:40;25.60;91.40
22633;DHT22;11483;55.828;37.488;2023-06-26T07:50:06;25.80;92.30
22633;DHT22;11483;55.828;37.488;2023-06-26T07:52:32;25.90;92.00
22633;DHT22;11483;55.828;37.488;2023-06-26T07:54:58;26.00;92.00
22633;DHT22;11483;55.828;37.488;2023-06-26T07:57:24;26.10;92.10
22633;DHT22;11483;55.828;37.488;2023-06-26T07:59:50;26.10;90.70
22633;DHT22;11483;55.828;37.488;2023-06-26T08:02:16;26.20;91.00
22633;DHT22;11483;55.828;37.488;2023-06-26T08:04:43;26.30;90.30
22633;DHT22;11483;55.828;37.488;2023-06-26T08:07:09;26.40;89.10
22633;DHT22;11483;55.828;37.488;2023-06-26T08:09:35;26.40;88.90
22633;DHT22;11483;55.828;37.488;2023-06-26T08:12:01;26.40;87.30
22633;DHT22;11483;55.828;37.488;2023-06-26T08:14:28;26.50;86.20
22633;DHT22;11483;55.828;37.488;2023-06-26T08:16:54;26.40;84.70
22633;DHT22;11483;55.828;37.488;2023-06-26T08:19:20;26.40;84.90
22633;DHT22;11483;55.828;37.488;2023-06-26T08:21:46;26.50;85.60
22633;DHT22;11483;55.828;37.488;2023-06-26T08:24:13;26.80;85.80
22633;DHT22;11483;55.828;37.488;2023-06-26T08:26:39;27.10;82.90
22633;DHT22;11483;55.828;37.488;2023-06-26T08:29:05;27.30;83.00
22633;DHT22;11483;55.828;37.488;2023-06-26T08:31:37;27.70;81.40
22633;DHT22;11483;55.828;37.488;2023-06-26T08:34:04;27.90;79.30
22633;DHT22;11483;55.828;37.488;2023-06-26T08:36:30;28.30;81.50
22633;DHT22;11483;55.828;37.488;2023-06-26T08:38:56;28.30;76.30
22633;DHT22;11483;55.828;37.488;2023-06-26T08:41:23;28.10;75.60
22633;DHT22;11483;55.828;37.488;2023-06-26T08:43:49;27.70;74.80
22633;DHT22;11483;55.828;37.488;2023-06-26T08:46:16;27.50;75.60
22633;DHT22;11483;55.828;37.488;2023-06-26T08:48:48;27.60;76.00
22633;DHT22;11483;55.828;37.488;2023-06-26T08:51:17;27.60;78.30
22633;DHT22;11483;55.828;37.488;2023-06-26T08:53:50;27.90;74.90
22633;DHT22;11483;55.828;37.488;2023-06-26T08:56:22;27.90;75.10
22633;DHT22;11483;55.828;37.488;2023-06-26T08:58:49;28.00;73.90
22633;DHT22;11483;55.828;37.488;2023-06-26T09:01:15;27.90;71.80
22633;DHT22;11483;55.828;37.488;2023-06-26T09:03:43;27.90;75.50
22633;DHT22;11483;55.828;37.488;2023-06-26T09:06:11;27.90;74.50
22633;DHT22;11483;55.828;37.488;2023-06-26T09:08:38;27.90;75.40
22633;DHT22;11483;55.828;37.488;2023-06-26T09:11:04;28.00;77.10
22633;DHT22;11483;55.828;37.488;2023-06-26T09:13:30;28.20;74.40
22633;DHT22;11483;55.828;37.488;2023-06-26T09:15:57;28.20;74.20
22633;DHT22;11483;55.828;37.488;2023-06-26T09:18:24;28.20;73.30
22633;DHT22;11483;55.828;37.488;2023-06-26T09:20:50;28.00;72.60
22633;DHT22;11483;55.828;37.488;2023-06-26T09:23:16;27.50;73.10
22633;DHT22;11483;55.828;37.488;2023-06-26T09:25:42;27.20;74.00
22633;DHT22;11483;55.828;37.488;2023-06-26T09:28:10;26.90;76.70
22633;DHT22;11483;55.828;37.488;2023-06-26T09:30:36;26.70;77.40
22633;DHT22;11483;55.828;37.488;2023-06-26T09:33:16;26.50;76.90
22633;DHT22;11483;55.828;37.488;2023-06-26T09:35:46;26.50;75.90
22633;DHT22;11483;55.828;37.488;2023-06-26T09:38:13;26.40;74.90
22633;DHT22;11483;55.828;37.488;2023-06-26T09:40:40;26.50;77.70
22633;DHT22;11483;55.828;37.488;2023-06-26T09:43:07;27.40;74.50
22633;DHT22;11483;55.828;37.488;2023-06-26T09:45:35;27.60;74.10
22633;DHT22;11483;55.828;37.488;2023-06-26T09:48:04;27.50;74.10
22633;DHT22;11483;55.828;37.488;2023-06-26T09:50:33;27.30;74.10
22633;DHT22;11483;55.828;37.488;2023-06-26T09:53:13;27.20;73.80
22633;DHT22;11483;55.828;37.488;2023-06-26T09:55:39;27.30;74.40
22633;DHT22;11483;55.828;37.488;2023-06-26T09:58:10;27.10;74.10
22633;DHT22;11483;55.828;37.488;2023-06-26T10:00:40;27.00;75.60
22633;DHT22;11483;55.828;37.488;2023-06-26T10:03:07;26.90;75.80
22633;DHT22;11483;55.828;37.488;2023-06-26T10:05:34;26.70;75.40
22633;DHT22;11483;55.828;37.488;2023-06-26T10:08:01;26.60;74.10
22633;DHT22;11483;55.828;37.488;2023-06-26T10:10:28;26.50;76.80
22633;DHT22;11483;55.828;37.488;2023-06-26T10:12:59;26.30;75.70
22633;DHT22;11483;55.828;37.488;2023-06-26T10:15:27;26.20;75.30
22633;DHT22;11483;55.828;37.488;2023-06-26T10:17:56;26.10;77.20
22633;DHT22;11483;55.828;37.488;2023-06-26T10:20:23;25.90;76.80
22633;DHT22;11483;55.828;37.488;2023-06-26T10:22:49;26.00;75.90
22633;DHT22;11483;55.828;37.488;2023-06-26T10:25:19;26.00;75.60
22633;DHT22;11483;55.828;37.488;2023-06-26T10:27:57;25.90;74.90
22633;DHT22;11483;55.828;37.488;2023-06-26T10:30:28;25.70;77.20
22633;DHT22;11483;55.828;37.488;2023-06-26T10:32:55;25.60;76.30
22633;DHT22;11483;55.828;37.488;2023-06-26T10:35:21;25.40;74.70
22633;DHT22;11483;55.828;37.488;2023-06-26T10:37:49;25.50;73.80
22633;DHT22;11483;55.828;37.488;2023-06-26T10:40:28;25.60;77.80
22633;DHT22;11483;55.828;37.488;2023-06-26T10:43:11;25.90;76.60
22633;DHT22;11483;55.828;37.488;2023-06-26T10:45:37;26.40;76.60
22633;DHT22;11483;55.828;37.488;2023-06-26T10:48:08;26.80;75.50
22633;DHT22;11483;55.828;37.488;2023-06-26T10:50:34;27.90;73.30
22633;DHT22;11483;55.828;37.488;2023-06-26T10:56:01;31.80;70.20
22633;DHT22;11483;55.828;37.488;2023-06-26T11:01:19;36.20;60.10
22633;DHT22;11483;55.828;37.488;2023-06-26T11:03:59;36.90;53.20
22633;DHT22;11483;55.828;37.488;2023-06-26T11:06:29;37.00;50.90
22633;DHT22;11483;55.828;37.488;2023-06-26T11:14:25;38.60;47.50
22633;DHT22;11483;55.828;37.488;2023-06-26T11:16:52;38.80;46.50
22633;DHT22;11483;55.828;37.488;2023-06-26T11:19:20;39.20;46.90
22633;DHT22;11483;55.828;37.488;2023-06-26T11:21:46;39.30;46.70
22633;DHT22;11483;55.828;37.488;2023-06-26T11:24:13;39.50;45.30
22633;DHT22;11483;55.828;37.488;2023-06-26T11:26:40;38.90;45.80
22633;DHT22;11483;55.828;37.488;2023-06-26T11:29:07;38.40;44.90
22633;DHT22;11483;55.828;37.488;2023-06-26T11:31:34;38.20;46.30
22633;DHT22;11483;55.828;37.488;2023-06-26T11:34:11;38.60;45.50
22633;DHT22;11483;55.828;37.488;2023-06-26T11:36:38;39.60;45.00
22633;DHT22;11483;55.828;37.488;2023-06-26T11:39:05;39.10;43.60
22633;DHT22;11483;55.828;37.488;2023-06-26T11:41:33;38.80;44.20
22633;DHT22;11483;55.828;37.488;2023-06-26T11:44:03;38.40;43.00
22633;DHT22;11483;55.828;37.488;2023-06-26T11:46:30;37.60;43.40
22633;DHT22;11483;55.828;37.488;2023-06-26T11:48:56;37.00;45.00
22633;DHT22;11483;55.828;37.488;2023-06-26T11:51:22;36.90;44.40
22633;DHT22;11483;55.828;37.488;2023-06-26T11:53:50;37.20;44.80
22633;DHT22;11483;55.828;37.488;2023-06-26T11:56:17;37.30;44.60
22633;DHT22;11483;55.828;37.488;2023-06-26T11:58:59;36.90;45.20
22633;DHT22;11483;55.828;37.488;2023-06-26T12:01:31;35.60;46.80
22633;DHT22;11483;55.828;37.488;2023-06-26T12:04:00;34.60;47.60
22633;DHT22;11483;55.828;37.488;2023-06-26T12:06:31;32.90;49.50
22633;DHT22;11483;55.828;37.488;2023-06-26T12:09:00;31.70;51.60
22633;DHT22;11483;55.828;37.488;2023-06-26T12:11:26;32.30;52.10
22633;DHT22;11483;55.828;37.488;2023-06-26T12:13:54;33.10;51.10
22633;DHT22;11483;55.828;37.488;2023-06-26T12:16:20;32.80;50.50
22633;DHT22;11483;55.828;37.488;2023-06-26T12:18:46;32.30;51.50
22633;DHT22;11483;55.828;37.488;2023-06-26T12:24:04;33.70;49.10
22633;DHT22;11483;55.828;37.488;2023-06-26T12:26:31;34.70;48.00
22633;DHT22;11483;55.828;37.488;2023-06-26T12:29:08;34.80;47.60
22633;DHT22;11483;55.828;37.488;2023-06-26T12:31:35;33.40;47.50
22633;DHT22;11483;55.828;37.488;2023-06-26T12:34:09;32.80;48.60
22633;DHT22;11483;55.828;37.488;2023-06-26T12:36:49;33.10;48.80
22633;DHT22;11483;55.828;37.488;2023-06-26T12:39:21;33.70;48.30
22633;DHT22;11483;55.828;37.488;2023-06-26T12:41:49;34.10;47.80
22633;DHT22;11483;55.828;37.488;2023-06-26T12:44:27;34.70;47.50
22633;DHT22;11483;55.828;37.488;2023-06-26T12:46:56;35.10;47.20
22633;DHT22;11483;55.828;37.488;2023-06-26T12:49:32;35.00;46.70
22633;DHT22;11483;55.828;37.488;2023-06-26T12:52:00;34.70;46.90
22633;DHT22;11483;55.828;37.488;2023-06-26T12:54:27;34.40;47.20
22633;DHT22;11483;55.828;37.488;2023-06-26T12:56:53;34.70;48.30
22633;DHT22;11483;55.828;37.488;2023-06-26T12:59:20;35.50;49.40
22633;DHT22;11483;55.828;37.488;2023-06-26T13:01:46;36.80;47.70
22633;DHT22;11483;55.828;37.488;2023-06-26T13:04:12;37.40;44.80
22633;DHT22;11483;55.828;37.488;2023-06-26T13:06:38;37.50;46.00
22633;DHT22;11483;55.828;37.488;2023-06-26T13:09:04;38.00;44.50
22633;DHT22;11483;55.828;37.488;2023-06-26T13:11:30;38.60;44.10
22633;DHT22;11483;55.828;37.488;2023-06-26T13:13:57;38.90;43.80
22633;DHT22;11483;55.828;37.488;2023-06-26T13:16:23;39.00;43.10
22633;DHT22;11483;55.828;37.488;2023-06-26T13:18:49;37.40;42.80
22633;DHT22;11483;55.828;37.488;2023-06-26T13:21:17;36.30;44.40
22633;DHT22;11483;55.828;37.488;2023-06-26T13:23:45;36.00;46.70
22633;DHT22;11483;55.828;37.488;2023-06-26T13:26:11;36.00;45.40
22633;DHT22;11483;55.828;37.488;2023-06-26T13:28:37;35.50;45.40
22633;DHT22;11483;55.828;37.488;2023-06-26T13:31:04;34.70;46.00
22633;DHT22;11483;55.828;37.488;2023-06-26T13:33:31;33.70;45.90
22633;DHT22;11483;55.828;37.488;2023-06-26T13:35:57;32.70;46.90
22633;DHT22;11483;55.828;37.488;2023-06-26T13:38:24;31.70;48.30
22633;DHT22;11483;55.828;37.488;2023-06-26T13:40:51;30.80;50.10
22633;DHT22;11483;55.828;37.488;2023-06-26T13:43:18;30.20;51.80
22633;DHT22;11483;55.828;37.488;2023-06-26T13:45:44;28.70;51.70
22633;DHT22;11483;55.828;37.488;2023-06-26T13:48:10;29.30;53.50
22633;DHT22;11483;55.828;37.488;2023-06-26T13:50:36;28.80;53.40
22633;DHT22;11483;55.828;37.488;2023-06-26T13:53:02;28.50;53.60
22633;DHT22;11483;55.828;37.488;2023-06-26T13:55:27;28.30;54.40
22633;DHT22;11483;55.828;37.488;2023-06-26T13:57:54;28.00;55.30
22633;DHT22;11483;55.828;37.488;2023-06-26T14:00:21;27.60;55.80
22633;DHT22;11483;55.828;37.488;2023-06-26T14:02:48;27.50;56.10
22633;DHT22;11483;55.828;37.488;2023-06-26T14:05:14;27.30;56.10
22633;DHT22;11483;55.828;37.488;2023-06-26T14:07:40;27.20;56.40
22633;DHT22;11483;55.828;37.488;2023-06-26T14:10:06;27.30;56.30
22633;DHT22;11483;55.828;37.488;2023-06-26T14:12:32;27.60;56.50
22633;DHT22;11483;55.828;37.488;2023-06-26T14:14:59;28.50;56.90
22633;DHT22;11483;55.828;37.488;2023-06-26T14:17:25;30.00;56.60
22633;DHT22;11483;55.828;37.488;2023-06-26T14:19:54;31.50;55.40
22633;DHT22;11483;55.828;37.488;2023-06-26T14:22:20;32.90;52.50
22633;DHT22;11483;55.828;37.488;2023-06-26T14:24:47;33.90;51.70
22633;DHT22;11483;55.828;37.488;2023-06-26T14:27:13;34.90;50.50
22633;DHT22;11483;55.828;37.488;2023-06-26T14:29:39;35.80;48.60
22633;DHT22;11483;55.828;37.488;2023-06-26T14:32:06;36.50;47.70
22633;DHT22;11483;55.828;37.488;2023-06-26T14:34:32;36.90;47.50
22633;DHT22;11483;55.828;37.488;2023-06-26T14:36:58;37.00;46.90
22633;DHT22;11483;55.828;37.488;2023-06-26T14:39:24;37.30;47.20
22633;DHT22;11483;55.828;37.488;2023-06-26T14:41:50;37.60;45.10
22633;DHT22;11483;55.828;37.488;2023-06-26T14:44:16;37.80;43.20
22633;DHT22;11483;55.828;37.488;2023-06-26T14:46:42;38.10;42.70
22633;DHT22;11483;55.828;37.488;2023-06-26T14:49:08;38.40;42.50
22633;DHT22;11483;55.828;37.488;2023-06-26T14:51:34;38.50;42.50
22633;DHT22;11483;55.828;37.488;2023-06-26T14:54:01;38.90;44.30
22633;DHT22;11483;55.828;37.488;2023-06-26T14:56:27;39.50;42.50
22633;DHT22;11483;55.828;37.488;2023-06-26T14:58:53;39.70;42.50
22633;DHT22;11483;55.828;37.488;2023-06-26T15:01:19;39.60;42.10
22633;DHT22;11483;55.828;37.488;2023-06-26T15:03:46;40.20;42.00
22633;DHT22;11483;55.828;37.488;2023-06-26T15:06:12;40.20;40.50
22633;DHT22;11483;55.828;37.488;2023-06-26T15:08:38;39.10;40.60
22633;DHT22;11483;55.828;37.488;2023-06-26T15:11:04;37.80;41.70
22633;DHT22;11483;55.828;37.488;2023-06-26T15:13:30;36.50;42.80
22633;DHT22;11483;55.828;37.488;2023-06-26T15:15:56;35.40;44.00
22633;DHT22;11483;55.828;37.488;2023-06-26T15:18:22;35.40;45.60
22633;DHT22;11483;55.828;37.488;2023-06-26T15:20:48;35.40;46.20
22633;DHT22;11483;55.828;37.488;2023-06-26T15:23:14;35.20;45.50
22633;DHT22;11483;55.828;37.488;2023-06-26T15:25:40;35.20;45.30
22633;DHT22;11483;55.828;37.488;2023-06-26T15:28:06;34.40;45.30
22633;DHT22;11483;55.828;37.488;2023-06-26T15:30:32;33.60;45.90
22633;DHT22;11483;55.828;37.488;2023-06-26T15:32:58;33.20;46.80